createdAt,value
2019-01-16T00:03:32.812Z,1.77
2019-01-16T00:07:38.328Z,1.67
2019-01-16T00:11:43.769Z,1.97
2019-01-16T00:15:49.442Z,1.97
2019-01-16T00:19:57.291Z,1.90
2019-01-16T00:24:02.856Z,1.90
2019-01-16T00:28:08.344Z,1.80
2019-01-16T00:32:13.813Z,1.67
2019-01-16T00:36:19.195Z,1.60
2019-01-16T00:40:24.775Z,1.87
2019-01-16T00:44:30.253Z,1.70
2019-01-16T00:48:35.841Z,1.80
2019-01-16T00:52:41.456Z,1.97
2019-01-16T00:56:46.988Z,1.70
2019-01-16T01:00:52.544Z,1.93
2019-01-16T01:04:58.144Z,1.87
2019-01-16T01:09:03.727Z,1.80
2019-01-16T01:13:09.262Z,2.07
2019-01-16T01:17:14.811Z,2.13
2019-01-16T01:21:20.374Z,2.07
2019-01-16T01:25:25.831Z,2.07
2019-01-16T01:29:31.367Z,2.20
2019-01-16T01:33:36.925Z,2.40
2019-01-16T01:37:42.470Z,2.23
2019-01-16T01:41:48.056Z,2.80
2019-01-16T01:45:53.650Z,2.37
2019-01-16T01:49:59.099Z,2.63
2019-01-16T01:54:04.588Z,2.50
2019-01-16T01:58:10.150Z,2.37
2019-01-16T02:02:15.695Z,2.53
2019-01-16T02:06:21.187Z,2.37
2019-01-16T02:10:36.331Z,2.40
2019-01-16T02:14:41.825Z,2.60
2019-01-16T02:18:47.646Z,2.47
2019-01-16T02:23:05.882Z,2.20
2019-01-16T02:27:11.453Z,2.60
2019-01-16T02:31:17.063Z,2.70
2019-01-16T02:35:22.541Z,2.80
2019-01-16T02:39:28.175Z,2.37
2019-01-16T02:43:33.827Z,2.70
2019-01-16T02:47:39.313Z,2.53
2019-01-16T02:51:44.874Z,2.90
2019-01-16T02:55:50.546Z,2.97
2019-01-16T02:59:56.004Z,2.83
2019-01-16T03:04:01.655Z,2.90
2019-01-16T03:08:07.021Z,2.70
2019-01-16T03:12:12.659Z,3.13
2019-01-16T03:16:19.021Z,2.87
2019-01-16T03:20:24.677Z,2.43
2019-01-16T03:24:30.121Z,2.73
2019-01-16T03:28:35.694Z,2.67
2019-01-16T03:32:41.252Z,2.40
2019-01-16T03:36:46.859Z,2.73
2019-01-16T03:40:52.388Z,2.57
2019-01-16T03:44:57.965Z,2.83
2019-01-16T03:49:03.496Z,2.63
2019-01-16T03:53:09.976Z,2.53
2019-01-16T03:57:15.550Z,2.83
2019-01-16T04:01:21.319Z,2.30
2019-01-16T04:05:27.354Z,2.87
2019-01-16T04:09:32.942Z,2.63
2019-01-16T04:13:38.514Z,2.40
2019-01-16T04:17:43.886Z,2.57
2019-01-16T04:21:49.474Z,2.50
2019-01-16T04:25:54.861Z,2.20
2019-01-16T04:30:00.419Z,2.40
2019-01-16T04:34:05.923Z,2.17
2019-01-16T04:38:11.591Z,2.47
2019-01-16T04:42:17.082Z,1.77
2019-01-16T04:46:22.626Z,2.10
2019-01-16T04:50:28.004Z,1.90
2019-01-16T04:54:33.673Z,2.07
2019-01-16T04:58:39.088Z,1.80
2019-01-16T05:02:44.658Z,2.20
2019-01-16T05:06:50.096Z,2.10
2019-01-16T05:10:55.822Z,2.37
2019-01-16T05:15:01.540Z,2.80
2019-01-16T05:19:06.960Z,2.57
2019-01-16T05:23:12.395Z,2.97
2019-01-16T05:27:17.862Z,2.60
2019-01-16T05:31:23.500Z,3.27
2019-01-16T05:35:29.046Z,3.60
2019-01-16T05:39:34.669Z,3.73
2019-01-16T05:43:40.366Z,3.80
2019-01-16T05:47:45.840Z,3.90
2019-01-16T05:51:51.396Z,3.57
2019-01-16T05:55:56.756Z,3.97
2019-01-16T06:00:02.197Z,4.13
2019-01-16T06:04:07.721Z,3.93
2019-01-16T06:08:13.267Z,4.13
2019-01-16T06:12:18.814Z,3.93
2019-01-16T06:16:24.383Z,4.40
2019-01-16T06:20:30.097Z,4.80
2019-01-16T06:24:35.740Z,4.87
2019-01-16T06:28:41.274Z,4.87
2019-01-16T06:32:46.832Z,3.87
2019-01-16T06:36:57.425Z,4.10
2019-01-16T06:41:02.998Z,3.90
2019-01-16T06:45:08.438Z,3.83
2019-01-16T06:49:13.921Z,3.70
2019-01-16T06:53:19.975Z,3.43
2019-01-16T06:57:25.522Z,3.40
2019-01-16T07:01:32.069Z,3.43
2019-01-16T07:05:39.074Z,3.80
2019-01-16T07:09:44.549Z,3.33
2019-01-16T07:13:50.173Z,3.63
2019-01-16T07:17:55.518Z,3.43
2019-01-16T07:22:01.248Z,3.13
2019-01-16T07:26:06.877Z,3.07
2019-01-16T07:30:13.430Z,3.23
2019-01-16T07:34:19.068Z,3.10
2019-01-16T07:38:24.538Z,2.97
2019-01-16T07:42:29.869Z,2.90
2019-01-16T07:46:35.462Z,2.63
2019-01-16T07:50:41.039Z,3.53
2019-01-16T07:54:46.494Z,2.97
2019-01-16T07:58:51.970Z,2.67
2019-01-16T08:02:57.467Z,2.93
2019-01-16T08:07:02.891Z,3.37
2019-01-16T08:11:09.383Z,3.73
2019-01-16T08:15:14.914Z,3.40
2019-01-16T08:19:20.400Z,3.80
2019-01-16T08:23:25.879Z,3.57
2019-01-16T08:27:31.598Z,3.73
2019-01-16T08:31:38.134Z,3.40
2019-01-16T08:35:43.638Z,4.13
2019-01-16T08:39:49.215Z,4.53
2019-01-16T08:43:54.804Z,3.97
2019-01-16T08:48:00.326Z,4.60
2019-01-16T08:52:05.928Z,3.00
2019-01-16T08:56:11.415Z,3.10
2019-01-16T09:00:16.995Z,2.80
2019-01-16T09:04:22.469Z,2.80
2019-01-16T09:08:28.081Z,2.80
2019-01-16T09:12:33.674Z,2.40
2019-01-16T09:16:39.232Z,2.37
2019-01-16T09:20:44.919Z,2.70
2019-01-16T09:24:50.486Z,2.43
2019-01-16T09:28:55.966Z,2.50
2019-01-16T09:33:01.526Z,2.47
2019-01-16T09:37:07.239Z,2.37
2019-01-16T09:41:12.614Z,2.40
2019-01-16T09:45:18.206Z,2.80
2019-01-16T09:49:23.560Z,2.43
2019-01-16T09:53:29.077Z,2.97
2019-01-16T09:57:34.562Z,3.00
2019-01-16T10:01:40.194Z,2.67
2019-01-16T10:05:45.630Z,2.10
2019-01-16T10:09:51.218Z,2.73
2019-01-16T10:13:56.956Z,2.57
2019-01-16T10:18:02.276Z,2.70
2019-01-16T10:22:07.855Z,3.30
2019-01-16T10:26:13.452Z,2.47
2019-01-16T10:30:20.545Z,3.20
2019-01-16T10:34:26.012Z,2.60
2019-01-16T10:38:31.647Z,2.77
2019-01-16T10:42:37.112Z,2.50
2019-01-16T10:46:42.642Z,2.57
2019-01-16T10:50:48.194Z,2.60
2019-01-16T10:54:53.812Z,2.20
2019-01-16T10:58:59.395Z,2.30
2019-01-16T11:03:04.930Z,2.10
2019-01-16T11:07:10.415Z,2.60
2019-01-16T11:11:16.269Z,2.57
2019-01-16T11:15:21.792Z,2.30
2019-01-16T11:19:27.488Z,2.67
2019-01-16T11:23:33.002Z,2.17
2019-01-16T11:27:38.540Z,2.37
2019-01-16T11:31:44.206Z,2.27
2019-01-16T11:35:49.615Z,2.13
2019-01-16T11:39:55.048Z,2.17
2019-01-16T11:44:00.562Z,2.20
2019-01-16T11:48:06.002Z,2.23
2019-01-16T11:52:11.572Z,2.40
2019-01-16T11:56:17.131Z,3.10
2019-01-16T12:00:22.637Z,2.47
2019-01-16T12:04:28.209Z,2.60
2019-01-16T12:08:33.663Z,3.03
2019-01-16T12:12:39.146Z,2.47
2019-01-16T12:16:44.572Z,2.67
2019-01-16T12:20:50.004Z,2.80
2019-01-16T12:24:55.417Z,2.40
2019-01-16T12:29:00.986Z,2.27
2019-01-16T12:33:06.541Z,2.50
2019-01-16T12:37:12.103Z,2.20
2019-01-16T12:41:17.785Z,2.30
2019-01-16T12:45:23.331Z,2.40
2019-01-16T12:49:28.969Z,2.17
2019-01-16T12:53:34.447Z,2.00
2019-01-16T12:57:40.016Z,2.07
2019-01-16T13:02:03.706Z,2.57
2019-01-16T13:06:27.046Z,2.40
2019-01-16T13:10:50.746Z,2.20
2019-01-16T13:15:15.613Z,1.77
2019-01-16T13:19:39.441Z,1.70
2019-01-16T13:24:03.260Z,1.93
2019-01-16T13:28:27.009Z,1.97
2019-01-16T14:28:24.906Z,2.13
2019-01-16T14:32:30.436Z,2.10
2019-01-16T14:36:37.260Z,2.20
2019-01-16T14:40:42.711Z,1.93
2019-01-16T14:44:48.334Z,2.07
2019-01-16T14:48:53.860Z,2.10
2019-01-16T14:52:59.342Z,2.07
2019-01-16T14:57:05.916Z,1.70
2019-01-16T15:01:11.530Z,2.10
2019-01-16T15:05:17.194Z,2.30
2019-01-16T15:09:22.839Z,2.57
2019-01-16T15:13:28.389Z,2.73
2019-01-16T15:17:34.286Z,2.40
2019-01-16T15:21:39.834Z,2.63
2019-01-16T15:25:45.524Z,2.53
2019-01-16T15:29:50.951Z,2.30
2019-01-16T15:33:56.570Z,2.53
2019-01-16T15:38:01.939Z,2.57
2019-01-16T15:42:11.056Z,2.50
2019-01-16T15:46:16.518Z,2.23
2019-01-16T15:50:21.979Z,2.40
2019-01-16T15:54:27.570Z,2.70
2019-01-16T15:58:33.109Z,2.50
2019-01-16T16:02:38.700Z,2.03
2019-01-16T16:06:44.491Z,2.23
2019-01-16T16:10:50.178Z,1.97
2019-01-16T16:14:55.761Z,2.60
2019-01-16T16:19:01.252Z,2.47
2019-01-16T16:23:06.936Z,2.50
2019-01-16T16:27:12.300Z,2.40
2019-01-16T16:31:17.911Z,2.70
2019-01-16T16:35:23.393Z,2.73
2019-01-16T16:39:28.936Z,2.80
2019-01-16T16:43:34.517Z,3.07
2019-01-16T16:47:44.338Z,2.77
2019-01-16T16:51:53.206Z,2.63
2019-01-16T16:55:58.646Z,2.90
2019-01-16T17:00:04.489Z,2.90
2019-01-16T17:04:10.208Z,3.20
2019-01-16T17:08:15.898Z,3.20
2019-01-16T17:12:21.351Z,4.73
2019-01-16T17:16:26.807Z,3.60
2019-01-16T17:20:32.321Z,3.40
2019-01-16T17:24:37.818Z,2.97
2019-01-16T17:28:43.266Z,2.87
2019-01-16T17:32:48.847Z,3.10
2019-01-16T17:36:54.381Z,2.83
2019-01-16T17:40:59.895Z,3.07
2019-01-16T17:45:06.367Z,3.50
2019-01-16T17:49:11.932Z,2.53
2019-01-16T17:53:17.501Z,3.20
2019-01-16T17:57:24.126Z,3.40
2019-01-16T18:01:29.584Z,3.20
2019-01-16T18:05:35.056Z,3.03
2019-01-16T18:09:40.643Z,3.10
2019-01-16T18:13:46.144Z,3.70
2019-01-16T18:17:52.627Z,2.63
2019-01-16T18:21:58.096Z,2.43
2019-01-16T18:26:03.504Z,3.13
2019-01-16T18:30:10.635Z,3.20
2019-01-16T18:34:16.154Z,3.00
2019-01-16T18:38:21.693Z,3.20
2019-01-16T18:42:27.246Z,2.87
2019-01-16T18:46:32.830Z,3.27
2019-01-16T18:50:38.522Z,3.73
2019-01-16T18:54:43.868Z,2.50
2019-01-16T18:58:49.347Z,2.83
2019-01-16T19:02:55.022Z,2.37
2019-01-16T19:07:00.478Z,2.80
2019-01-16T19:11:06.091Z,3.00
2019-01-16T19:15:12.274Z,2.73
2019-01-16T19:19:17.791Z,3.03
2019-01-16T19:23:23.426Z,2.87
2019-01-16T19:27:29.229Z,2.90
2019-01-16T19:31:34.741Z,2.63
2019-01-16T19:35:40.261Z,3.03
2019-01-16T19:39:45.867Z,2.63
2019-01-16T19:43:51.258Z,2.90
2019-01-16T19:47:58.037Z,2.53
2019-01-16T19:52:03.674Z,2.40
2019-01-16T19:56:09.198Z,2.43
2019-01-16T20:00:16.201Z,2.60
2019-01-16T20:04:21.707Z,2.40
2019-01-16T20:08:27.291Z,2.80
2019-01-16T20:12:33.031Z,2.40
2019-01-16T20:16:38.618Z,2.53
2019-01-16T20:20:47.053Z,2.50
2019-01-16T20:24:56.762Z,2.50
2019-01-16T20:29:02.278Z,2.13
2019-01-16T20:33:08.726Z,2.77
2019-01-16T20:37:14.338Z,2.47
2019-01-16T20:41:22.377Z,2.27
2019-01-16T20:45:27.925Z,2.93
2019-01-16T20:49:34.934Z,2.47
2019-01-16T20:53:40.471Z,2.53
2019-01-16T20:57:46.040Z,2.47
2019-01-16T21:01:51.590Z,2.73
2019-01-16T21:05:57.205Z,2.60
2019-01-16T21:10:02.878Z,3.50
2019-01-16T21:14:08.468Z,3.10
2019-01-16T21:18:13.950Z,3.20
2019-01-16T21:22:19.552Z,3.70
2019-01-16T21:26:25.027Z,4.00
2019-01-16T21:30:30.780Z,3.80
2019-01-16T21:34:36.376Z,4.70
2019-01-16T21:38:41.876Z,4.27
2019-01-16T21:42:47.537Z,4.60
2019-01-16T21:46:55.494Z,4.47
2019-01-16T21:51:01.166Z,4.10
2019-01-16T21:55:07.274Z,4.70
2019-01-16T21:59:14.082Z,4.07
2019-01-16T22:03:19.705Z,3.80
2019-01-16T22:07:25.169Z,3.63
2019-01-16T22:11:30.708Z,3.37
2019-01-16T22:15:36.283Z,3.40
2019-01-16T22:19:41.926Z,3.10
2019-01-16T22:23:47.752Z,3.57
2019-01-16T22:27:53.192Z,3.57
2019-01-16T22:31:58.755Z,3.60
2019-01-16T22:36:04.366Z,3.20
2019-01-16T22:40:10.205Z,3.13
2019-01-16T22:44:15.869Z,3.00
2019-01-16T22:48:21.547Z,3.10
2019-01-16T22:52:27.067Z,2.93
2019-01-16T22:56:32.509Z,3.07
2019-01-16T23:00:38.287Z,2.80
2019-01-16T23:04:45.275Z,2.67
2019-01-16T23:08:50.795Z,2.87
2019-01-16T23:12:56.265Z,2.73
2019-01-16T23:17:01.841Z,2.80
2019-01-16T23:21:09.796Z,2.73
2019-01-16T23:25:15.508Z,3.20
2019-01-16T23:29:21.040Z,3.00
2019-01-16T23:33:26.485Z,2.70
2019-01-16T23:37:31.935Z,2.80
2019-01-16T23:41:37.577Z,2.90
2019-01-16T23:45:43.148Z,2.87
2019-01-16T23:49:48.672Z,2.53
2019-01-16T23:53:56.248Z,3.10
2019-01-16T23:58:01.611Z,2.90
